sensor_id;sensor_type;location;lat;lon;timestamp;P1;durP1;ratioP1;P2;durP2;ratioP2
27428;SDS011;14881;48.092;11.574;2023-04-16T00:00:54;9.52;;;6.65;;
27428;SDS011;14881;48.092;11.574;2023-04-16T00:03:21;9.82;;;7.35;;
27428;SDS011;14881;48.092;11.574;2023-04-16T00:05:50;8.95;;;7.35;;
27428;SDS011;14881;48.092;11.574;2023-04-16T00:08:22;8.32;;;6.97;;
27428;SDS011;14881;48.092;11.574;2023-04-16T00:10:51;9.48;;;7.03;;
27428;SDS011;14881;48.092;11.574;2023-04-16T00:13:19;9.95;;;7.95;;
27428;SDS011;14881;48.092;11.574;2023-04-16T00:15:47;10.82;;;7.80;;
27428;SDS011;14881;48.092;11.574;2023-04-16T00:18:15;10.25;;;7.95;;
27428;SDS011;14881;48.092;11.574;2023-04-16T00:20:43;10.32;;;8.05;;
27428;SDS011;14881;48.092;11.574;2023-04-16T00:23:10;11.02;;;8.02;;
27428;SDS011;14881;48.092;11.574;2023-04-16T00:25:39;10.65;;;9.20;;
27428;SDS011;14881;48.092;11.574;2023-04-16T00:28:08;11.88;;;9.32;;
27428;SDS011;14881;48.092;11.574;2023-04-16T00:30:36;11.10;;;8.65;;
27428;SDS011;14881;48.092;11.574;2023-04-16T00:33:04;11.18;;;8.82;;
27428;SDS011;14881;48.092;11.574;2023-04-16T00:35:31;11.30;;;9.10;;
27428;SDS011;14881;48.092;11.574;2023-04-16T00:37:59;11.50;;;8.65;;
27428;SDS011;14881;48.092;11.574;2023-04-16T00:40:27;13.90;;;10.73;;
27428;SDS011;14881;48.092;11.574;2023-04-16T00:42:56;11.20;;;9.07;;
27428;SDS011;14881;48.092;11.574;2023-04-16T00:45:24;11.77;;;9.32;;
27428;SDS011;14881;48.092;11.574;2023-04-16T00:47:51;12.40;;;9.73;;
27428;SDS011;14881;48.092;11.574;2023-04-16T00:50:19;13.27;;;9.85;;
27428;SDS011;14881;48.092;11.574;2023-04-16T00:52:47;12.68;;;10.10;;
27428;SDS011;14881;48.092;11.574;2023-04-16T00:55:15;12.23;;;9.63;;
27428;SDS011;14881;48.092;11.574;2023-04-16T00:57:44;12.25;;;9.52;;
27428;SDS011;14881;48.092;11.574;2023-04-16T01:00:13;13.13;;;9.55;;
27428;SDS011;14881;48.092;11.574;2023-04-16T01:02:41;13.95;;;10.27;;
27428;SDS011;14881;48.092;11.574;2023-04-16T01:05:09;11.38;;;9.05;;
27428;SDS011;14881;48.092;11.574;2023-04-16T01:07:37;13.55;;;9.93;;
27428;SDS011;14881;48.092;11.574;2023-04-16T01:10:05;13.15;;;10.43;;
27428;SDS011;14881;48.092;11.574;2023-04-16T01:12:33;13.88;;;9.10;;
27428;SDS011;14881;48.092;11.574;2023-04-16T01:15:01;12.18;;;9.45;;
27428;SDS011;14881;48.092;11.574;2023-04-16T01:17:30;11.00;;;9.00;;
27428;SDS011;14881;48.092;11.574;2023-04-16T01:19:58;11.40;;;9.00;;
27428;SDS011;14881;48.092;11.574;2023-04-16T01:22:27;13.50;;;9.82;;
27428;SDS011;14881;48.092;11.574;2023-04-16T01:24:55;12.07;;;9.43;;
27428;SDS011;14881;48.092;11.574;2023-04-16T01:27:22;13.20;;;10.07;;
27428;SDS011;14881;48.092;11.574;2023-04-16T01:29:50;13.35;;;9.15;;
27428;SDS011;14881;48.092;11.574;2023-04-16T01:32:18;11.90;;;9.50;;
27428;SDS011;14881;48.092;11.574;2023-04-16T01:34:46;11.60;;;9.60;;
27428;SDS011;14881;48.092;11.574;2023-04-16T01:37:13;12.88;;;9.70;;
27428;SDS011;14881;48.092;11.574;2023-04-16T01:39:43;12.00;;;8.98;;
27428;SDS011;14881;48.092;11.574;2023-04-16T01:42:10;13.77;;;9.90;;
27428;SDS011;14881;48.092;11.574;2023-04-16T01:44:38;10.93;;;9.32;;
27428;SDS011;14881;48.092;11.574;2023-04-16T01:47:06;12.98;;;9.80;;
27428;SDS011;14881;48.092;11.574;2023-04-16T01:49:34;10.90;;;9.40;;
27428;SDS011;14881;48.092;11.574;2023-04-16T01:52:02;10.80;;;8.88;;
27428;SDS011;14881;48.092;11.574;2023-04-16T01:54:30;11.73;;;9.38;;
27428;SDS011;14881;48.092;11.574;2023-04-16T01:56:59;11.50;;;8.80;;
27428;SDS011;14881;48.092;11.574;2023-04-16T01:59:28;11.35;;;9.07;;
27428;SDS011;14881;48.092;11.574;2023-04-16T02:01:56;13.32;;;9.27;;
27428;SDS011;14881;48.092;11.574;2023-04-16T02:04:26;12.20;;;9.50;;
27428;SDS011;14881;48.092;11.574;2023-04-16T02:06:54;13.25;;;9.48;;
27428;SDS011;14881;48.092;11.574;2023-04-16T02:09:21;11.63;;;8.93;;
27428;SDS011;14881;48.092;11.574;2023-04-16T02:11:49;11.15;;;9.23;;
27428;SDS011;14881;48.092;11.574;2023-04-16T02:14:18;9.98;;;8.32;;
27428;SDS011;14881;48.092;11.574;2023-04-16T02:16:47;11.88;;;9.55;;
27428;SDS011;14881;48.092;11.574;2023-04-16T02:19:15;11.63;;;8.65;;
27428;SDS011;14881;48.092;11.574;2023-04-16T02:21:42;11.10;;;9.05;;
27428;SDS011;14881;48.092;11.574;2023-04-16T02:24:10;14.32;;;9.40;;
27428;SDS011;14881;48.092;11.574;2023-04-16T02:26:38;14.43;;;9.98;;
27428;SDS011;14881;48.092;11.574;2023-04-16T02:29:06;11.07;;;8.80;;
27428;SDS011;14881;48.092;11.574;2023-04-16T02:31:35;12.40;;;9.02;;
27428;SDS011;14881;48.092;11.574;2023-04-16T02:34:03;14.05;;;9.93;;
27428;SDS011;14881;48.092;11.574;2023-04-16T02:36:31;12.43;;;9.85;;
27428;SDS011;14881;48.092;11.574;2023-04-16T02:38:59;15.93;;;9.65;;
27428;SDS011;14881;48.092;11.574;2023-04-16T02:41:27;12.98;;;10.07;;
27428;SDS011;14881;48.092;11.574;2023-04-16T02:43:54;13.25;;;9.43;;
27428;SDS011;14881;48.092;11.574;2023-04-16T02:46:22;13.98;;;10.10;;
27428;SDS011;14881;48.092;11.574;2023-04-16T02:48:51;13.55;;;9.27;;
27428;SDS011;14881;48.092;11.574;2023-04-16T02:51:19;12.82;;;9.55;;
27428;SDS011;14881;48.092;11.574;2023-04-16T02:53:47;12.73;;;9.50;;
27428;SDS011;14881;48.092;11.574;2023-04-16T02:56:14;13.40;;;9.85;;
27428;SDS011;14881;48.092;11.574;2023-04-16T02:58:42;12.23;;;9.45;;
27428;SDS011;14881;48.092;11.574;2023-04-16T03:01:10;12.98;;;9.75;;
27428;SDS011;14881;48.092;11.574;2023-04-16T03:03:37;11.73;;;8.98;;
27428;SDS011;14881;48.092;11.574;2023-04-16T03:06:06;12.95;;;9.00;;
27428;SDS011;14881;48.092;11.574;2023-04-16T03:08:34;11.93;;;9.45;;
27428;SDS011;14881;48.092;11.574;2023-04-16T03:11:02;10.07;;;8.00;;
27428;SDS011;14881;48.092;11.574;2023-04-16T03:13:29;11.43;;;9.15;;
27428;SDS011;14881;48.092;11.574;2023-04-16T03:15:57;10.32;;;8.32;;
27428;SDS011;14881;48.092;11.574;2023-04-16T03:18:25;10.80;;;8.27;;
27428;SDS011;14881;48.092;11.574;2023-04-16T03:20:52;8.63;;;7.57;;
27428;SDS011;14881;48.092;11.574;2023-04-16T03:23:22;9.50;;;8.15;;
27428;SDS011;14881;48.092;11.574;2023-04-16T03:25:49;10.75;;;8.18;;
27428;SDS011;14881;48.092;11.574;2023-04-16T03:28:17;9.15;;;8.20;;
27428;SDS011;14881;48.092;11.574;2023-04-16T03:30:48;9.75;;;7.97;;
27428;SDS011;14881;48.092;11.574;2023-04-16T03:33:17;8.55;;;7.57;;
27428;SDS011;14881;48.092;11.574;2023-04-16T03:35:45;11.05;;;8.52;;
27428;SDS011;14881;48.092;11.574;2023-04-16T03:38:12;10.60;;;8.07;;
27428;SDS011;14881;48.092;11.574;2023-04-16T03:40:41;9.27;;;7.60;;
27428;SDS011;14881;48.092;11.574;2023-04-16T03:43:09;9.55;;;8.02;;
27428;SDS011;14881;48.092;11.574;2023-04-16T03:45:42;9.88;;;7.38;;
27428;SDS011;14881;48.092;11.574;2023-04-16T03:48:10;8.98;;;7.90;;
27428;SDS011;14881;48.092;11.574;2023-04-16T03:50:38;8.82;;;7.72;;
27428;SDS011;14881;48.092;11.574;2023-04-16T03:53:06;8.60;;;7.70;;
27428;SDS011;14881;48.092;11.574;2023-04-16T03:55:33;9.48;;;7.82;;
27428;SDS011;14881;48.092;11.574;2023-04-16T03:58:03;8.88;;;7.88;;
27428;SDS011;14881;48.092;11.574;2023-04-16T04:00:31;8.85;;;7.38;;
27428;SDS011;14881;48.092;11.574;2023-04-16T04:02:58;10.05;;;7.90;;
27428;SDS011;14881;48.092;11.574;2023-04-16T04:05:26;9.30;;;7.43;;
27428;SDS011;14881;48.092;11.574;2023-04-16T04:07:54;9.18;;;7.80;;
27428;SDS011;14881;48.092;11.574;2023-04-16T04:10:22;8.10;;;7.30;;
27428;SDS011;14881;48.092;11.574;2023-04-16T04:12:49;8.77;;;7.28;;
27428;SDS011;14881;48.092;11.574;2023-04-16T04:15:18;9.85;;;8.20;;
27428;SDS011;14881;48.092;11.574;2023-04-16T04:17:46;8.45;;;7.30;;
27428;SDS011;14881;48.092;11.574;2023-04-16T04:20:14;8.57;;;7.25;;
27428;SDS011;14881;48.092;11.574;2023-04-16T04:22:42;8.60;;;7.57;;
27428;SDS011;14881;48.092;11.574;2023-04-16T04:25:09;10.73;;;8.15;;
27428;SDS011;14881;48.092;11.574;2023-04-16T04:27:37;9.43;;;7.85;;
27428;SDS011;14881;48.092;11.574;2023-04-16T04:30:05;9.98;;;8.70;;
27428;SDS011;14881;48.092;11.574;2023-04-16T04:32:35;10.80;;;8.80;;
27428;SDS011;14881;48.092;11.574;2023-04-16T04:35:03;9.93;;;8.32;;
27428;SDS011;14881;48.092;11.574;2023-04-16T04:37:31;9.48;;;8.05;;
27428;SDS011;14881;48.092;11.574;2023-04-16T04:39:59;10.13;;;7.85;;
27428;SDS011;14881;48.092;11.574;2023-04-16T04:42:26;10.18;;;8.45;;
27428;SDS011;14881;48.092;11.574;2023-04-16T04:44:54;11.50;;;8.75;;
27428;SDS011;14881;48.092;11.574;2023-04-16T04:47:22;10.68;;;8.88;;
27428;SDS011;14881;48.092;11.574;2023-04-16T04:49:51;10.50;;;8.65;;
27428;SDS011;14881;48.092;11.574;2023-04-16T04:52:18;11.45;;;8.20;;
27428;SDS011;14881;48.092;11.574;2023-04-16T04:54:46;9.52;;;8.10;;
27428;SDS011;14881;48.092;11.574;2023-04-16T04:57:14;11.45;;;9.13;;
27428;SDS011;14881;48.092;11.574;2023-04-16T04:59:42;10.93;;;8.07;;
27428;SDS011;14881;48.092;11.574;2023-04-16T05:02:10;9.88;;;8.15;;
27428;SDS011;14881;48.092;11.574;2023-04-16T05:04:37;9.30;;;7.72;;
27428;SDS011;14881;48.092;11.574;2023-04-16T05:07:06;9.18;;;7.70;;
27428;SDS011;14881;48.092;11.574;2023-04-16T05:09:34;8.75;;;7.03;;
27428;SDS011;14881;48.092;11.574;2023-04-16T05:12:02;10.63;;;8.07;;
27428;SDS011;14881;48.092;11.574;2023-04-16T05:14:30;9.93;;;7.30;;
27428;SDS011;14881;48.092;11.574;2023-04-16T05:16:58;8.95;;;7.38;;
27428;SDS011;14881;48.092;11.574;2023-04-16T05:19:26;9.00;;;7.22;;
27428;SDS011;14881;48.092;11.574;2023-04-16T05:21:53;8.68;;;7.68;;
27428;SDS011;14881;48.092;11.574;2023-04-16T05:24:23;11.20;;;7.10;;
27428;SDS011;14881;48.092;11.574;2023-04-16T05:26:50;7.97;;;6.50;;
27428;SDS011;14881;48.092;11.574;2023-04-16T05:29:18;8.73;;;7.13;;
27428;SDS011;14881;48.092;11.574;2023-04-16T05:31:47;8.77;;;7.15;;
27428;SDS011;14881;48.092;11.574;2023-04-16T05:34:14;8.75;;;7.20;;
27428;SDS011;14881;48.092;11.574;2023-04-16T05:36:42;7.43;;;6.47;;
27428;SDS011;14881;48.092;11.574;2023-04-16T05:39:11;7.22;;;5.93;;
27428;SDS011;14881;48.092;11.574;2023-04-16T05:41:40;6.65;;;5.95;;
27428;SDS011;14881;48.092;11.574;2023-04-16T05:44:07;6.80;;;5.80;;
27428;SDS011;14881;48.092;11.574;2023-04-16T05:46:35;5.50;;;4.93;;
27428;SDS011;14881;48.092;11.574;2023-04-16T05:49:03;6.57;;;4.78;;
27428;SDS011;14881;48.092;11.574;2023-04-16T05:51:31;5.20;;;4.55;;
27428;SDS011;14881;48.092;11.574;2023-04-16T05:53:58;4.85;;;4.40;;
27428;SDS011;14881;48.092;11.574;2023-04-16T05:56:26;5.50;;;4.32;;
27428;SDS011;14881;48.092;11.574;2023-04-16T05:58:55;5.13;;;4.57;;
27428;SDS011;14881;48.092;11.574;2023-04-16T06:01:23;4.70;;;4.15;;
27428;SDS011;14881;48.092;11.574;2023-04-16T06:03:51;5.20;;;3.90;;
27428;SDS011;14881;48.092;11.574;2023-04-16T06:06:19;6.72;;;4.40;;
27428;SDS011;14881;48.092;11.574;2023-04-16T06:08:47;4.15;;;3.33;;
27428;SDS011;14881;48.092;11.574;2023-04-16T06:11:15;4.05;;;3.47;;
27428;SDS011;14881;48.092;11.574;2023-04-16T06:13:43;3.63;;;3.33;;
27428;SDS011;14881;48.092;11.574;2023-04-16T06:16:12;3.72;;;3.20;;
27428;SDS011;14881;48.092;11.574;2023-04-16T06:18:39;4.50;;;3.85;;
27428;SDS011;14881;48.092;11.574;2023-04-16T06:21:07;3.20;;;2.90;;
27428;SDS011;14881;48.092;11.574;2023-04-16T06:23:35;4.00;;;3.17;;
27428;SDS011;14881;48.092;11.574;2023-04-16T06:26:03;2.63;;;2.42;;
27428;SDS011;14881;48.092;11.574;2023-04-16T06:28:31;2.50;;;2.30;;
27428;SDS011;14881;48.092;11.574;2023-04-16T06:30:59;2.78;;;1.90;;
27428;SDS011;14881;48.092;11.574;2023-04-16T06:33:28;3.28;;;2.10;;
27428;SDS011;14881;48.092;11.574;2023-04-16T06:35:56;2.10;;;1.90;;
27428;SDS011;14881;48.092;11.574;2023-04-16T06:38:23;1.70;;;1.60;;
27428;SDS011;14881;48.092;11.574;2023-04-16T06:40:51;1.98;;;1.77;;
27428;SDS011;14881;48.092;11.574;2023-04-16T06:43:19;1.50;;;1.40;;
27428;SDS011;14881;48.092;11.574;2023-04-16T06:45:47;1.08;;;1.02;;
27428;SDS011;14881;48.092;11.574;2023-04-16T06:48:15;1.27;;;1.20;;
27428;SDS011;14881;48.092;11.574;2023-04-16T06:50:44;1.40;;;1.30;;
27428;SDS011;14881;48.092;11.574;2023-04-16T06:53:12;1.35;;;1.20;;
27428;SDS011;14881;48.092;11.574;2023-04-16T06:55:39;3.03;;;1.77;;
27428;SDS011;14881;48.092;11.574;2023-04-16T06:58:07;1.00;;;0.90;;
27428;SDS011;14881;48.092;11.574;2023-04-16T07:00:35;1.02;;;1.02;;
27428;SDS011;14881;48.092;11.574;2023-04-16T07:03:03;1.10;;;1.10;;
27428;SDS011;14881;48.092;11.574;2023-04-16T07:05:30;1.35;;;1.25;;
27428;SDS011;14881;48.092;11.574;2023-04-16T07:08:00;1.33;;;1.10;;
27428;SDS011;14881;48.092;11.574;2023-04-16T07:10:27;0.85;;;0.85;;
27428;SDS011;14881;48.092;11.574;2023-04-16T07:13:02;1.10;;;1.00;;
27428;SDS011;14881;48.092;11.574;2023-04-16T07:15:30;1.55;;;1.45;;
27428;SDS011;14881;48.092;11.574;2023-04-16T07:17:58;1.40;;;1.30;;
27428;SDS011;14881;48.092;11.574;2023-04-16T07:20:26;0.52;;;0.52;;
27428;SDS011;14881;48.092;11.574;2023-04-16T07:22:53;0.93;;;0.80;;
27428;SDS011;14881;48.092;11.574;2023-04-16T07:25:23;0.70;;;0.70;;
27428;SDS011;14881;48.092;11.574;2023-04-16T07:27:50;1.27;;;0.70;;
27428;SDS011;14881;48.092;11.574;2023-04-16T07:30:18;0.80;;;0.80;;
27428;SDS011;14881;48.092;11.574;2023-04-16T07:32:46;1.05;;;1.05;;
27428;SDS011;14881;48.092;11.574;2023-04-16T07:35:14;0.82;;;0.82;;
27428;SDS011;14881;48.092;11.574;2023-04-16T07:37:41;0.85;;;0.85;;
27428;SDS011;14881;48.092;11.574;2023-04-16T07:40:09;1.25;;;1.10;;
27428;SDS011;14881;48.092;11.574;2023-04-16T07:42:39;0.80;;;0.80;;
27428;SDS011;14881;48.092;11.574;2023-04-16T07:45:07;0.80;;;0.80;;
27428;SDS011;14881;48.092;11.574;2023-04-16T07:47:35;0.80;;;0.80;;
27428;SDS011;14881;48.092;11.574;2023-04-16T07:50:03;0.85;;;0.80;;
27428;SDS011;14881;48.092;11.574;2023-04-16T07:52:32;1.00;;;1.00;;
27428;SDS011;14881;48.092;11.574;2023-04-16T07:55:07;1.30;;;1.30;;
27428;SDS011;14881;48.092;11.574;2023-04-16T07:57:35;1.27;;;1.20;;
27428;SDS011;14881;48.092;11.574;2023-04-16T08:00:05;2.05;;;0.88;;
27428;SDS011;14881;48.092;11.574;2023-04-16T08:02:34;1.25;;;1.15;;
27428;SDS011;14881;48.092;11.574;2023-04-16T08:05:02;0.68;;;0.68;;
27428;SDS011;14881;48.092;11.574;2023-04-16T08:07:30;0.80;;;0.80;;
27428;SDS011;14881;48.092;11.574;2023-04-16T08:10:00;1.08;;;0.70;;
27428;SDS011;14881;48.092;11.574;2023-04-16T08:12:28;0.93;;;0.90;;
27428;SDS011;14881;48.092;11.574;2023-04-16T08:14:56;1.00;;;0.88;;
27428;SDS011;14881;48.092;11.574;2023-04-16T08:17:25;1.08;;;0.85;;
27428;SDS011;14881;48.092;11.574;2023-04-16T08:19:53;0.90;;;0.90;;
27428;SDS011;14881;48.092;11.574;2023-04-16T08:22:21;0.95;;;0.80;;
27428;SDS011;14881;48.092;11.574;2023-04-16T08:24:49;0.80;;;0.80;;
27428;SDS011;14881;48.092;11.574;2023-04-16T08:27:17;1.02;;;0.82;;
27428;SDS011;14881;48.092;11.574;2023-04-16T08:29:45;0.88;;;0.88;;
27428;SDS011;14881;48.092;11.574;2023-04-16T08:32:13;0.68;;;0.68;;
27428;SDS011;14881;48.092;11.574;2023-04-16T08:34:42;0.68;;;0.68;;
27428;SDS011;14881;48.092;11.574;2023-04-16T08:37:10;0.70;;;0.70;;
27428;SDS011;14881;48.092;11.574;2023-04-16T08:39:38;1.00;;;1.00;;
27428;SDS011;14881;48.092;11.574;2023-04-16T08:42:05;1.10;;;0.90;;
27428;SDS011;14881;48.092;11.574;2023-04-16T08:44:41;0.90;;;0.90;;
27428;SDS011;14881;48.092;11.574;2023-04-16T08:47:14;1.17;;;0.65;;
27428;SDS011;14881;48.092;11.574;2023-04-16T08:49:44;1.00;;;1.00;;
27428;SDS011;14881;48.092;11.574;2023-04-16T08:52:14;1.08;;;1.00;;
27428;SDS011;14881;48.092;11.574;2023-04-16T08:54:45;1.80;;;1.50;;
27428;SDS011;14881;48.092;11.574;2023-04-16T08:57:22;1.23;;;0.70;;
27428;SDS011;14881;48.092;11.574;2023-04-16T08:59:53;0.70;;;0.70;;
27428;SDS011;14881;48.092;11.574;2023-04-16T09:02:22;0.95;;;0.55;;
27428;SDS011;14881;48.092;11.574;2023-04-16T09:04:53;0.88;;;0.80;;
27428;SDS011;14881;48.092;11.574;2023-04-16T09:07:23;0.75;;;0.75;;
27428;SDS011;14881;48.092;11.574;2023-04-16T09:09:52;1.27;;;1.17;;
27428;SDS011;14881;48.092;11.574;2023-04-16T09:12:22;0.82;;;0.80;;
27428;SDS011;14881;48.092;11.574;2023-04-16T09:14:50;1.02;;;0.93;;
27428;SDS011;14881;48.092;11.574;2023-04-16T09:17:18;0.63;;;0.63;;
27428;SDS011;14881;48.092;11.574;2023-04-16T09:19:45;1.15;;;0.55;;
27428;SDS011;14881;48.092;11.574;2023-04-16T09:22:15;0.70;;;0.70;;
27428;SDS011;14881;48.092;11.574;2023-04-16T09:24:43;1.63;;;0.80;;
27428;SDS011;14881;48.092;11.574;2023-04-16T09:27:10;0.70;;;0.70;;
27428;SDS011;14881;48.092;11.574;2023-04-16T09:29:39;1.08;;;1.05;;
27428;SDS011;14881;48.092;11.574;2023-04-16T09:32:08;0.80;;;0.80;;
27428;SDS011;14881;48.092;11.574;2023-04-16T09:37:25;0.52;;;0.52;;
27428;SDS011;14881;48.092;11.574;2023-04-16T09:39:55;0.60;;;0.60;;
27428;SDS011;14881;48.092;11.574;2023-04-16T09:42:24;0.65;;;0.65;;
27428;SDS011;14881;48.092;11.574;2023-04-16T09:44:54;0.95;;;0.95;;
27428;SDS011;14881;48.092;11.574;2023-04-16T09:47:26;0.50;;;0.50;;
27428;SDS011;14881;48.092;11.574;2023-04-16T09:50:06;0.70;;;0.70;;
27428;SDS011;14881;48.092;11.574;2023-04-16T09:52:41;0.88;;;0.80;;
27428;SDS011;14881;48.092;11.574;2023-04-16T09:55:10;1.15;;;1.10;;
27428;SDS011;14881;48.092;11.574;2023-04-16T09:57:38;0.77;;;0.77;;
27428;SDS011;14881;48.092;11.574;2023-04-16T10:00:06;1.00;;;1.00;;
27428;SDS011;14881;48.092;11.574;2023-04-16T10:02:35;0.70;;;0.70;;
27428;SDS011;14881;48.092;11.574;2023-04-16T10:05:07;1.23;;;0.82;;
27428;SDS011;14881;48.092;11.574;2023-04-16T10:07:35;0.60;;;0.60;;
27428;SDS011;14881;48.092;11.574;2023-04-16T10:10:06;0.88;;;0.80;;
27428;SDS011;14881;48.092;11.574;2023-04-16T10:12:34;0.60;;;0.60;;
27428;SDS011;14881;48.092;11.574;2023-04-16T10:15:02;0.82;;;0.60;;
27428;SDS011;14881;48.092;11.574;2023-04-16T10:17:30;0.70;;;0.70;;
27428;SDS011;14881;48.092;11.574;2023-04-16T10:19:59;0.60;;;0.60;;
27428;SDS011;14881;48.092;11.574;2023-04-16T10:22:27;0.82;;;0.70;;
27428;SDS011;14881;48.092;11.574;2023-04-16T10:24:55;0.77;;;0.77;;
27428;SDS011;14881;48.092;11.574;2023-04-16T10:27:25;0.73;;;0.73;;
27428;SDS011;14881;48.092;11.574;2023-04-16T10:29:53;0.68;;;0.68;;
27428;SDS011;14881;48.092;11.574;2023-04-16T10:32:28;0.80;;;0.80;;
27428;SDS011;14881;48.092;11.574;2023-04-16T10:34:58;0.60;;;0.60;;
27428;SDS011;14881;48.092;11.574;2023-04-16T10:37:28;0.65;;;0.65;;
27428;SDS011;14881;48.092;11.574;2023-04-16T10:39:57;0.73;;;0.73;;
27428;SDS011;14881;48.092;11.574;2023-04-16T10:42:27;0.85;;;0.85;;
27428;SDS011;14881;48.092;11.574;2023-04-16T10:44:57;1.17;;;0.80;;
27428;SDS011;14881;48.092;11.574;2023-04-16T10:47:25;1.10;;;1.10;;
27428;SDS011;14881;48.092;11.574;2023-04-16T10:49:55;1.05;;;1.02;;
27428;SDS011;14881;48.092;11.574;2023-04-16T10:52:24;0.85;;;0.85;;
27428;SDS011;14881;48.092;11.574;2023-04-16T10:54:55;0.90;;;0.90;;
27428;SDS011;14881;48.092;11.574;2023-04-16T10:57:27;1.00;;;1.00;;
27428;SDS011;14881;48.092;11.574;2023-04-16T10:59:56;1.00;;;0.90;;
27428;SDS011;14881;48.092;11.574;2023-04-16T11:02:27;0.88;;;0.88;;
27428;SDS011;14881;48.092;11.574;2023-04-16T11:04:56;1.35;;;0.90;;
27428;SDS011;14881;48.092;11.574;2023-04-16T11:07:31;0.73;;;0.73;;
27428;SDS011;14881;48.092;11.574;2023-04-16T11:10:02;0.68;;;0.68;;
27428;SDS011;14881;48.092;11.574;2023-04-16T11:12:33;1.20;;;1.15;;
27428;SDS011;14881;48.092;11.574;2023-04-16T11:15:04;0.90;;;0.90;;
27428;SDS011;14881;48.092;11.574;2023-04-16T11:17:35;0.80;;;0.80;;
27428;SDS011;14881;48.092;11.574;2023-04-16T11:20:05;1.10;;;1.08;;
27428;SDS011;14881;48.092;11.574;2023-04-16T11:22:45;0.80;;;0.80;;
27428;SDS011;14881;48.092;11.574;2023-04-16T11:25:17;1.00;;;1.00;;
27428;SDS011;14881;48.092;11.574;2023-04-16T11:27:49;1.00;;;0.90;;
27428;SDS011;14881;48.092;11.574;2023-04-16T11:30:27;0.80;;;0.80;;
27428;SDS011;14881;48.092;11.574;2023-04-16T11:32:55;0.50;;;0.50;;
27428;SDS011;14881;48.092;11.574;2023-04-16T11:35:23;0.85;;;0.85;;
27428;SDS011;14881;48.092;11.574;2023-04-16T11:37:56;2.13;;;0.80;;
27428;SDS011;14881;48.092;11.574;2023-04-16T11:40:24;0.77;;;0.77;;
27428;SDS011;14881;48.092;11.574;2023-04-16T11:42:59;0.93;;;0.93;;
27428;SDS011;14881;48.092;11.574;2023-04-16T11:45:28;0.65;;;0.65;;
27428;SDS011;14881;48.092;11.574;2023-04-16T11:47:56;1.67;;;0.80;;
27428;SDS011;14881;48.092;11.574;2023-04-16T11:50:24;0.65;;;0.65;;
27428;SDS011;14881;48.092;11.574;2023-04-16T11:52:53;0.60;;;0.60;;
27428;SDS011;14881;48.092;11.574;2023-04-16T11:55:23;0.95;;;0.95;;
27428;SDS011;14881;48.092;11.574;2023-04-16T11:57:51;0.80;;;0.80;;
27428;SDS011;14881;48.092;11.574;2023-04-16T12:00:20;0.80;;;0.80;;
27428;SDS011;14881;48.092;11.574;2023-04-16T12:02:50;1.67;;;1.10;;
27428;SDS011;14881;48.092;11.574;2023-04-16T12:05:26;0.93;;;0.93;;
27428;SDS011;14881;48.092;11.574;2023-04-16T12:07:56;0.85;;;0.85;;
27428;SDS011;14881;48.092;11.574;2023-04-16T12:10:24;0.90;;;0.90;;
27428;SDS011;14881;48.092;11.574;2023-04-16T12:12:53;0.63;;;0.63;;
27428;SDS011;14881;48.092;11.574;2023-04-16T12:15:22;0.80;;;0.80;;
27428;SDS011;14881;48.092;11.574;2023-04-16T12:17:49;0.63;;;0.63;;
27428;SDS011;14881;48.092;11.574;2023-04-16T12:20:37;0.82;;;0.82;;
27428;SDS011;14881;48.092;11.574;2023-04-16T12:23:07;1.23;;;1.13;;
27428;SDS011;14881;48.092;11.574;2023-04-16T12:25:35;0.95;;;0.95;;
27428;SDS011;14881;48.092;11.574;2023-04-16T12:28:03;1.23;;;0.70;;
27428;SDS011;14881;48.092;11.574;2023-04-16T12:30:32;1.10;;;1.10;;
27428;SDS011;14881;48.092;11.574;2023-04-16T12:33:13;0.90;;;0.90;;
27428;SDS011;14881;48.092;11.574;2023-04-16T12:35:42;0.70;;;0.70;;
27428;SDS011;14881;48.092;11.574;2023-04-16T12:38:10;0.70;;;0.70;;
27428;SDS011;14881;48.092;11.574;2023-04-16T12:40:40;1.00;;;1.00;;
27428;SDS011;14881;48.092;11.574;2023-04-16T12:43:08;5.57;;;0.80;;
27428;SDS011;14881;48.092;11.574;2023-04-16T12:45:38;1.30;;;0.98;;
27428;SDS011;14881;48.092;11.574;2023-04-16T12:48:07;0.88;;;0.88;;
27428;SDS011;14881;48.092;11.574;2023-04-16T12:50:34;1.73;;;0.95;;
27428;SDS011;14881;48.092;11.574;2023-04-16T12:53:04;1.00;;;1.00;;
27428;SDS011;14881;48.092;11.574;2023-04-16T12:55:32;0.80;;;0.80;;
27428;SDS011;14881;48.092;11.574;2023-04-16T12:58:00;0.65;;;0.65;;
27428;SDS011;14881;48.092;11.574;2023-04-16T13:00:28;0.85;;;0.85;;
27428;SDS011;14881;48.092;11.574;2023-04-16T13:02:57;0.90;;;0.90;;
27428;SDS011;14881;48.092;11.574;2023-04-16T13:05:25;1.23;;;0.80;;
27428;SDS011;14881;48.092;11.574;2023-04-16T13:07:53;1.40;;;1.23;;
27428;SDS011;14881;48.092;11.574;2023-04-16T13:10:20;0.82;;;0.82;;
27428;SDS011;14881;48.092;11.574;2023-04-16T13:12:49;0.88;;;0.88;;
27428;SDS011;14881;48.092;11.574;2023-04-16T13:15:16;1.23;;;0.80;;
27428;SDS011;14881;48.092;11.574;2023-04-16T13:17:44;2.03;;;1.83;;
27428;SDS011;14881;48.092;11.574;2023-04-16T13:20:13;1.23;;;1.13;;
27428;SDS011;14881;48.092;11.574;2023-04-16T13:22:41;1.00;;;0.90;;
27428;SDS011;14881;48.092;11.574;2023-04-16T13:25:09;1.23;;;1.17;;
27428;SDS011;14881;48.092;11.574;2023-04-16T13:27:37;1.92;;;0.77;;
27428;SDS011;14881;48.092;11.574;2023-04-16T13:30:05;0.90;;;0.90;;
27428;SDS011;14881;48.092;11.574;2023-04-16T13:32:34;1.60;;;1.00;;
27428;SDS011;14881;48.092;11.574;2023-04-16T13:35:02;1.48;;;1.02;;
27428;SDS011;14881;48.092;11.574;2023-04-16T13:37:31;1.05;;;0.95;;
27428;SDS011;14881;48.092;11.574;2023-04-16T13:39:59;0.90;;;0.90;;
27428;SDS011;14881;48.092;11.574;2023-04-16T13:42:27;3.67;;;3.35;;
27428;SDS011;14881;48.092;11.574;2023-04-16T13:44:54;0.95;;;0.95;;
27428;SDS011;14881;48.092;11.574;2023-04-16T13:47:23;1.83;;;0.95;;
27428;SDS011;14881;48.092;11.574;2023-04-16T13:49:51;0.90;;;0.90;;
27428;SDS011;14881;48.092;11.574;2023-04-16T13:52:19;1.20;;;1.10;;
27428;SDS011;14881;48.092;11.574;2023-04-16T13:54:48;1.40;;;1.30;;
27428;SDS011;14881;48.092;11.574;2023-04-16T13:57:15;0.88;;;0.88;;
27428;SDS011;14881;48.092;11.574;2023-04-16T13:59:43;1.20;;;1.20;;
27428;SDS011;14881;48.092;11.574;2023-04-16T14:02:11;1.40;;;1.30;;
27428;SDS011;14881;48.092;11.574;2023-04-16T14:04:39;2.45;;;1.42;;
27428;SDS011;14881;48.092;11.574;2023-04-16T14:07:07;0.90;;;0.90;;
27428;SDS011;14881;48.092;11.574;2023-04-16T14:09:35;1.85;;;0.70;;
27428;SDS011;14881;48.092;11.574;2023-04-16T14:12:04;0.80;;;0.80;;
27428;SDS011;14881;48.092;11.574;2023-04-16T14:14:32;1.13;;;1.02;;
27428;SDS011;14881;48.092;11.574;2023-04-16T14:17:00;0.95;;;0.93;;
27428;SDS011;14881;48.092;11.574;2023-04-16T14:19:28;0.90;;;0.90;;
27428;SDS011;14881;48.092;11.574;2023-04-16T14:21:56;1.00;;;1.00;;
27428;SDS011;14881;48.092;11.574;2023-04-16T14:24:24;0.70;;;0.70;;
27428;SDS011;14881;48.092;11.574;2023-04-16T14:26:52;0.85;;;0.85;;
27428;SDS011;14881;48.092;11.574;2023-04-16T14:29:21;0.80;;;0.80;;
27428;SDS011;14881;48.092;11.574;2023-04-16T14:31:49;1.10;;;1.00;;
27428;SDS011;14881;48.092;11.574;2023-04-16T14:34:17;0.93;;;0.80;;
27428;SDS011;14881;48.092;11.574;2023-04-16T14:36:44;0.70;;;0.70;;
27428;SDS011;14881;48.092;11.574;2023-04-16T14:39:14;0.70;;;0.70;;
27428;SDS011;14881;48.092;11.574;2023-04-16T14:41:41;0.85;;;0.85;;